Time;durP1;ratioP1;P1;durP2;ratioP2;P2;SDS_P1;SDS_P2;PMS_P1;PMS_P2;Temp;Humidity;BMP_temperature;BMP_pressure;BME280_temperature;BME280_humidity;BME280_pressure;Samples;Min_cycle;Max_cycle;Signal;HPM_P1;HPM_P2
2021/03/05 00:01:30;;;;;;;40.60;25.50;;;;;;;4.18;62.76;99730.12;1653633;85;21061;-91
2021/03/05 00:04:19;;;;;;;40.63;24.57;;;;;;;4.15;62.95;99733.58;1638586;86;21219;-89
2021/03/05 00:06:46;;;;;;;37.53;23.33;;;;;;;4.07;62.75;99719.87;1635688;87;21221;-91
2021/03/05 00:09:15;;;;;;;39.20;23.37;;;;;;;4.24;62.47;99726.02;1657585;85;21205;-93
2021/03/05 00:11:59;;;;;;;31.07;18.77;;;;;;;4.27;62.00;99728.31;1680921;82;21088;-91
2021/03/05 00:14:38;;;;;;;32.70;18.97;;;;;;;4.21;61.27;99728.97;1703194;81;21152;-89
2021/03/05 00:17:06;;;;;;;27.10;16.90;;;;;;;4.17;60.48;99739.52;1702809;83;21196;-89
2021/03/05 00:19:33;;;;;;;28.73;18.37;;;;;;;4.17;60.11;99743.47;1702288;83;21164;-86
2021/03/05 00:22:01;;;;;;;21.87;14.50;;;;;;;4.16;59.83;99733.39;1701111;83;21171;-87
2021/03/05 00:24:30;;;;;;;24.80;15.97;;;;;;;4.16;59.26;99743.13;1687941;83;21156;-86
2021/03/05 00:26:58;;;;;;;23.23;14.73;;;;;;;4.09;59.11;99735.05;1697974;83;21156;-89
2021/03/05 00:29:27;;;;;;;21.17;13.67;;;;;;;4.05;59.01;99737.65;1697303;83;21624;-87
2021/03/05 00:31:55;;;;;;;26.47;16.63;;;;;;;4.00;59.03;99738.14;1700199;81;21154;-92
2021/03/05 00:34:29;;;;;;;21.70;13.63;;;;;;;3.96;59.16;99744.73;1695413;82;21158;-89
2021/03/05 00:36:58;;;;;;;24.07;15.40;;;;;;;3.93;59.30;99742.41;1713174;82;21227;-91
2021/03/05 00:39:28;;;;;;;18.90;12.33;;;;;;;3.92;59.16;99744.72;1719283;81;21180;-87
2021/03/05 00:41:55;;;;;;;27.00;16.17;;;;;;;3.88;58.75;99744.68;1724903;81;21232;-88
2021/03/05 00:44:23;;;;;;;21.83;15.17;;;;;;;3.82;58.83;99740.88;1718404;82;21124;-88
2021/03/05 00:46:50;;;;;;;23.60;15.90;;;;;;;3.76;59.08;99740.70;1702076;82;21189;-85
2021/03/05 00:49:20;;;;;;;20.33;13.97;;;;;;;3.73;59.10;99743.17;1711766;83;21177;-87
2021/03/05 00:51:47;;;;;;;21.63;13.77;;;;;;;3.74;59.20;99737.40;1690788;84;21762;-88
2021/03/05 00:54:15;;;;;;;21.07;13.07;;;;;;;3.75;59.28;99739.03;1687349;83;21205;-86
2021/03/05 00:56:43;;;;;;;23.27;13.73;;;;;;;3.76;59.16;99736.75;1707955;82;21515;-87
2021/03/05 00:59:10;;;;;;;21.20;14.17;;;;;;;3.76;59.02;99740.70;1683180;84;22333;-89
2021/03/05 01:01:37;;;;;;;23.00;15.27;;;;;;;3.75;59.18;99733.76;1708476;83;21122;-86
2021/03/05 01:04:05;;;;;;;21.47;13.87;;;;;;;3.79;59.21;99733.80;1702568;83;21206;-87
2021/03/05 01:06:33;;;;;;;17.00;12.00;;;;;;;3.76;58.92;99738.06;1689693;82;21198;-84
2021/03/05 01:09:02;;;;;;;24.33;15.13;;;;;;;3.69;58.93;99737.39;1709047;83;21190;-83
2021/03/05 01:11:30;;;;;;;22.23;14.17;;;;;;;3.62;59.06;99734.23;1713952;82;21013;-86
2021/03/05 01:13:59;;;;;;;21.43;13.13;;;;;;;3.55;59.23;99730.06;1709350;82;21177;-90
2021/03/05 01:16:32;;;;;;;20.23;13.60;;;;;;;3.56;59.35;99737.47;1649687;84;21479;-90
2021/03/05 01:19:08;;;;;;;20.00;13.13;;;;;;;3.55;59.46;99740.61;1639461;85;21190;-92
2021/03/05 01:21:37;;;;;;;19.47;12.50;;;;;;;3.57;59.40;99732.05;1669311;84;21355;-93
2021/03/05 01:24:10;;;;;;;20.87;13.87;;;;;;;3.62;59.47;99739.50;1677437;83;21708;-90
2021/03/05 01:26:41;;;;;;;19.93;13.63;;;;;;;3.61;59.14;99733.87;1663723;85;21229;-90
2021/03/05 01:29:08;;;;;;;20.93;12.03;;;;;;;3.59;59.22;99734.53;1674467;83;21174;-91
2021/03/05 01:31:37;;;;;;;20.17;11.27;;;;;;;3.58;59.28;99736.35;1688116;83;21356;-90
2021/03/05 01:34:12;;;;;;;18.57;12.07;;;;;;;3.60;59.26;99734.84;1686608;83;21055;-90
2021/03/05 01:36:46;;;;;;;19.23;12.20;;;;;;;3.62;59.19;99728.95;1671376;84;21202;-90
2021/03/05 01:39:19;;;;;;;17.70;11.33;;;;;;;3.62;59.26;99731.09;1686033;84;21202;-89
2021/03/05 01:41:46;;;;;;;15.20;10.50;;;;;;;3.63;59.32;99733.23;1692319;83;21206;-89
2021/03/05 01:44:13;;;;;;;18.57;11.50;;;;;;;3.64;59.24;99736.21;1685848;82;21196;-89
2021/03/05 01:46:42;;;;;;;18.63;11.47;;;;;;;3.65;59.07;99739.16;1684412;83;21209;-87
2021/03/05 01:49:21;;;;;;;19.33;10.67;;;;;;;3.62;59.00;99748.22;1677214;85;21166;-89
2021/03/05 01:51:49;;;;;;;21.63;11.83;;;;;;;3.61;59.06;99746.55;1671240;83;21239;-89
2021/03/05 01:54:18;;;;;;;18.10;11.20;;;;;;;3.60;59.04;99749.34;1669156;83;21329;-86
2021/03/05 01:56:48;;;;;;;20.30;11.03;;;;;;;3.60;59.24;99749.34;1658501;79;21109;-88
2021/03/05 01:59:18;;;;;;;23.07;12.00;;;;;;;3.59;59.27;99756.94;1664304;85;21176;-87
2021/03/05 02:01:45;;;;;;;21.10;12.40;;;;;;;3.57;59.33;99763.67;1663647;83;21198;-86
2021/03/05 02:04:13;;;;;;;19.60;11.37;;;;;;;3.53;59.35;99761.02;1649606;85;21339;-86
2021/03/05 02:06:42;;;;;;;16.07;9.77;;;;;;;3.51;59.40;99759.86;1671454;84;21184;-85
2021/03/05 02:09:09;;;;;;;18.33;10.83;;;;;;;3.50;59.68;99762.64;1668602;85;21163;-84
2021/03/05 02:11:37;;;;;;;16.33;10.13;;;;;;;3.49;59.49;99759.69;1694042;81;21033;-84
2021/03/05 02:14:05;;;;;;;20.60;11.40;;;;;;;3.47;59.49;99759.02;1697902;82;21181;-85
2021/03/05 02:17:01;;;;;;;18.47;11.73;;;;;;;3.42;59.54;99765.24;1710594;82;21334;-85
2021/03/05 02:19:51;;;;;;;22.40;11.97;;;;;;;3.40;59.69;99762.76;1702358;82;21267;-84
2021/03/05 02:23:01;;;;;;;18.33;11.60;;;;;;;3.11;59.86;99727.03;1697997;81;21187;-87
2021/03/05 02:26:06;;;;;;;19.30;11.83;;;;;;;3.36;59.85;99775.91;1707132;82;21793;-87
2021/03/05 02:29:10;;;;;;;18.53;11.10;;;;;;;3.29;60.19;99774.88;1674617;84;21666;-86
2021/03/05 02:31:56;;;;;;;18.80;11.03;;;;;;;3.29;60.26;99770.42;1708403;84;21476;-86
2021/03/05 02:34:38;;;;;;;17.47;10.87;;;;;;;3.27;60.31;99776.34;1737226;79;21210;-84
2021/03/05 02:37:12;;;;;;;18.60;11.63;;;;;;;3.27;60.38;99779.47;1747987;80;21184;-87
2021/03/05 02:40:03;;;;;;;18.53;11.27;;;;;;;3.25;60.45;99784.89;1719957;81;21121;-90
2021/03/05 02:42:39;;;;;;;;;;;;;;;3.25;60.53;99784.89;1753723;80;21294;-92
2021/03/05 02:45:28;;;;;;;17.63;10.50;;;;;;;3.26;60.58;99790.51;1747558;79;20209;-90
2021/03/05 02:48:03;;;;;;;17.87;11.03;;;;;;;3.20;60.79;99799.03;1726478;81;21207;-90
2021/03/05 02:50:54;;;;;;;24.07;12.30;;;;;;;3.17;60.85;99799.33;1734109;81;21117;-92
2021/03/05 02:53:46;;;;;;;19.33;12.27;;;;;;;3.19;60.87;99801.81;1727800;79;21149;-85
2021/03/05 02:56:19;;;;;;;20.50;12.90;;;;;;;3.20;60.87;99805.62;1725615;80;21093;-93
2021/03/05 02:58:51;;;;;;;20.23;12.87;;;;;;;3.23;60.94;99806.61;1736863;80;21141;-89
2021/03/05 03:01:24;;;;;;;21.00;13.37;;;;;;;3.24;61.02;99810.91;1733401;81;21199;-90
2021/03/05 03:03:56;;;;;;;24.57;15.27;;;;;;;3.24;61.03;99806.11;1733898;80;21141;-89
2021/03/05 03:06:28;;;;;;;23.53;13.77;;;;;;;3.25;61.16;99807.78;1722131;79;21113;-91
2021/03/05 03:09:03;;;;;;;24.33;13.27;;;;;;;3.23;61.29;99814.51;1749203;80;21195;-91
2021/03/05 03:11:34;;;;;;;26.37;14.47;;;;;;;3.25;61.45;99808.59;1747423;80;21065;-91
2021/03/05 03:14:07;;;;;;;21.17;13.43;;;;;;;3.22;61.34;99815.98;1719147;80;21162;-91
2021/03/05 03:16:37;;;;;;;23.63;14.93;;;;;;;3.20;61.50;99820.10;1709953;82;21140;-90
2021/03/05 03:19:15;;;;;;;23.47;13.70;;;;;;;3.19;61.58;99824.20;1752821;80;21113;-91
2021/03/05 03:21:47;;;;;;;21.60;13.13;;;;;;;3.21;61.78;99830.14;1729764;80;21116;-89
2021/03/05 03:24:18;;;;;;;19.70;14.13;;;;;;;3.20;61.73;99825.84;1736602;80;21148;-91
2021/03/05 03:26:46;;;;;;;19.97;12.77;;;;;;;3.24;61.75;99827.18;1706010;81;21872;-89
2021/03/05 03:29:17;;;;;;;28.07;14.70;;;;;;;3.25;61.81;99832.30;1704640;83;21485;-90
2021/03/05 03:31:54;;;;;;;21.40;13.60;;;;;;;3.28;61.85;99836.45;1708958;81;21254;-91
2021/03/05 03:34:27;;;;;;;20.40;13.60;;;;;;;3.29;61.86;99839.41;1700069;83;21128;-92
2021/03/05 03:36:58;;;;;;;27.33;15.43;;;;;;;3.27;61.86;99839.55;1725681;82;21165;-92
2021/03/05 03:39:36;;;;;;;24.33;14.57;;;;;;;3.27;61.99;99847.95;1712368;82;21219;-92
2021/03/05 03:42:07;;;;;;;21.93;12.70;;;;;;;3.26;62.06;99846.32;1697168;82;21344;-92
2021/03/05 03:44:38;;;;;;;24.03;14.93;;;;;;;3.27;62.37;99846.64;1730074;81;21222;-92
2021/03/05 03:47:25;;;;;;;30.20;15.57;;;;;;;3.23;62.60;99842.66;1730762;80;21164;-92
2021/03/05 03:49:56;;;;;;;31.00;17.03;;;;;;;3.20;62.78;99846.91;1750557;80;21195;-92
2021/03/05 03:52:43;;;;;;;25.80;15.60;;;;;;;3.17;62.99;99845.92;1732118;80;21187;-92
2021/03/05 03:55:13;;;;;;;25.83;15.17;;;;;;;3.20;63.20;99850.86;1759291;80;21150;-93
2021/03/05 03:57:53;;;;;;;26.40;15.37;;;;;;;3.18;63.38;99852.82;1758181;80;21275;-91
2021/03/05 04:00:32;;;;;;;26.27;15.00;;;;;;;3.21;63.59;99853.34;1722325;81;21035;-92
2021/03/05 04:03:05;;;;;;;30.53;15.67;;;;;;;3.37;63.20;99849.17;1725816;81;21114;-92
2021/03/05 04:05:38;;;;;;;26.30;16.20;;;;;;;3.41;63.23;99845.25;1726955;81;21271;-91
2021/03/05 04:08:11;;;;;;;26.10;15.83;;;;;;;3.36;63.41;99844.41;1727813;80;21504;-93
2021/03/05 04:10:41;;;;;;;31.67;16.43;;;;;;;3.31;63.57;99852.78;1760367;80;21132;-90
2021/03/05 04:13:33;;;;;;;25.43;16.33;;;;;;;3.30;63.69;99848.98;1711712;80;21192;-94
2021/03/05 04:16:03;;;;;;;31.97;17.43;;;;;;;3.26;63.89;99853.72;1717715;80;21184;-93
2021/03/05 04:18:37;;;;;;;24.57;14.97;;;;;;;3.23;64.01;99852.70;1697353;83;21595;-90
2021/03/05 04:21:24;;;;;;;30.90;17.40;;;;;;;3.19;64.15;99861.08;1710088;82;21213;-94
2021/03/05 04:23:59;;;;;;;24.47;15.37;;;;;;;3.10;64.37;99869.38;1746483;79;21350;-93
2021/03/05 04:27:19;;;;;;;31.67;16.13;;;;;;;3.04;64.69;99864.73;1761126;81;21168;-95
2021/03/05 04:30:31;;;;;;;27.10;15.77;;;;;;;2.95;64.89;99857.73;1757048;80;21117;-94
2021/03/05 04:33:21;;;;;;;29.70;16.43;;;;;;;3.05;65.11;99862.42;1759564;78;21137;-92
2021/03/05 04:35:55;;;;;;;28.83;16.83;;;;;;;3.20;64.85;99864.03;1727464;82;21160;-93
2021/03/05 04:38:28;;;;;;;34.13;18.20;;;;;;;3.20;64.87;99865.34;1708694;82;21181;-92
2021/03/05 04:41:05;;;;;;;27.87;17.67;;;;;;;3.17;64.89;99867.80;1724934;82;21158;-92
2021/03/05 04:44:20;;;;;;;30.60;17.30;;;;;;;3.18;64.92;99873.39;1708956;81;21149;-91
2021/03/05 04:47:38;;;;;;;29.57;16.37;;;;;;;3.15;65.04;99880.30;1722503;82;21153;-93
2021/03/05 04:50:16;;;;;;;29.00;16.57;;;;;;;3.08;65.22;99883.19;1711670;82;21199;-92
2021/03/05 04:53:04;;;;;;;29.90;17.43;;;;;;;3.02;65.39;99876.72;1720853;82;21164;-93
2021/03/05 04:55:34;;;;;;;32.70;17.63;;;;;;;2.95;65.62;99883.56;1724933;82;21076;-90
2021/03/05 04:58:04;;;;;;;26.33;14.97;;;;;;;3.01;65.66;99883.45;1724200;82;21309;-93
2021/03/05 05:00:31;;;;;;;27.03;14.77;;;;;;;3.08;65.40;99887.14;1723989;81;21027;-91
2021/03/05 05:02:58;;;;;;;23.60;13.63;;;;;;;2.94;65.68;99889.83;1722787;81;21201;-90
2021/03/05 05:05:27;;;;;;;27.20;13.60;;;;;;;2.39;66.07;99829.38;1729729;81;21284;-88
2021/03/05 05:07:57;;;;;;;21.43;13.50;;;;;;;2.58;67.02;99899.46;1726777;82;21186;-92
2021/03/05 05:10:24;;;;;;;22.93;12.33;;;;;;;2.42;67.46;99904.06;1685886;81;21136;-89
2021/03/05 05:12:52;;;;;;;20.10;12.83;;;;;;;2.32;68.03;99904.93;1696767;83;21061;-91
2021/03/05 05:15:21;;;;;;;18.83;12.23;;;;;;;2.40;67.65;99902.06;1689204;83;21203;-88
2021/03/05 05:17:49;;;;;;;23.70;13.37;;;;;;;2.43;67.82;99910.95;1697718;83;21834;-88
2021/03/05 05:20:19;;;;;;;24.67;13.80;;;;;;;2.33;68.06;99909.70;1696202;83;21204;-89
2021/03/05 05:22:46;;;;;;;25.83;13.87;;;;;;;1.81;68.33;99834.42;1717688;81;21064;-87
2021/03/05 05:25:15;;;;;;;23.57;13.70;;;;;;;2.23;68.62;99915.50;1720961;82;21154;-89
2021/03/05 05:27:45;;;;;;;23.13;12.67;;;;;;;2.20;68.57;99913.14;1700141;83;21182;-87
2021/03/05 05:30:15;;;;;;;25.40;13.03;;;;;;;2.24;68.63;99915.36;1727205;81;21815;-89
2021/03/05 05:32:43;;;;;;;21.13;12.83;;;;;;;2.34;68.55;99915.31;1726632;81;21255;-88
2021/03/05 05:35:12;;;;;;;22.20;12.93;;;;;;;2.28;68.77;99918.50;1732003;81;21086;-88
2021/03/05 05:37:45;;;;;;;28.83;14.23;;;;;;;2.22;68.88;99923.03;1737524;81;21296;-89
2021/03/05 05:40:15;;;;;;;21.03;12.47;;;;;;;2.18;68.99;99922.98;1710427;83;21332;-91
2021/03/05 05:42:49;;;;;;;24.30;12.80;;;;;;;2.18;69.24;99925.61;1737052;81;21158;-91
2021/03/05 05:45:28;;;;;;;23.63;13.50;;;;;;;1.94;69.28;99879.61;1683254;83;21126;-89
2021/03/05 05:47:57;;;;;;;19.47;12.77;;;;;;;2.39;68.86;99927.52;1720692;82;22501;-88
2021/03/05 05:50:51;;;;;;;23.43;13.97;;;;;;;2.43;68.64;99932.00;1713346;81;21313;-89
2021/03/05 05:54:03;;;;;;;20.20;12.78;;;;;;;2.42;68.65;99928.55;1683281;81;21311;-90
2021/03/05 05:57:11;;;;;;;17.87;11.57;;;;;;;2.44;68.33;99928.41;1722739;81;21026;-90
2021/03/05 05:59:51;;;;;;;20.70;13.77;;;;;;;2.41;68.44;99930.86;1729630;82;21271;-91
2021/03/05 06:03:10;;;;;;;25.35;13.80;;;;;;;2.37;68.58;99933.91;1673551;84;21294;-93
2021/03/05 06:06:25;;;;;;;24.53;13.67;;;;;;;2.42;68.72;99942.20;1725163;81;21165;-91
2021/03/05 06:13:15;;;;;;;27.90;15.15;;;;;;;2.50;69.31;99943.11;1727790;80;21033;-90
2021/03/05 06:16:57;;;;;;;30.33;16.13;;;;;;;2.71;69.20;99940.72;1725104;80;21266;-93
2021/03/05 06:20:17;;;;;;;23.27;15.30;;;;;;;2.75;69.26;99953.11;1726753;80;21216;-91
2021/03/05 06:29:57;;;;;;;25.57;13.73;;;;;;;2.59;69.17;99956.39;1636917;84;21230;-90
2021/03/05 06:32:49;;;;;;;26.17;14.83;;;;;;;2.51;69.00;99966.33;1656868;84;21255;-91
2021/03/05 06:35:44;;;;;;;23.07;14.10;;;;;;;2.69;68.68;99965.89;1690982;85;21219;-89
2021/03/05 06:38:42;;;;;;;22.13;13.07;;;;;;;2.79;68.49;99970.25;1679730;83;21215;-90
2021/03/05 07:13:21;;;;;;;23.27;12.00;;;;;;;3.00;64.62;99973.97;1817515;77;24945;-91
2021/03/05 07:19:48;;;;;;;20.37;11.87;;;;;;;2.94;65.23;99971.44;1759123;79;21196;-83
2021/03/05 07:27:06;;;;;;;23.60;12.10;;;;;;;3.10;65.53;99974.72;1643444;85;21180;-88
2021/03/05 07:34:15;;;;;;;17.53;10.97;;;;;;;3.21;64.99;99983.72;1742917;80;21100;-87
2021/03/05 07:37:26;;;;;;;23.97;15.47;;;;;;;3.30;64.87;99972.30;1595156;87;21359;-91
2021/03/05 07:41:03;;;;;;;20.37;12.33;;;;;;;3.29;65.36;99969.30;1610332;85;21250;-90
2021/03/05 07:44:30;;;;;;;20.60;12.13;;;;;;;3.34;65.34;99977.27;1627418;86;21239;-90
2021/03/05 07:47:57;;;;;;;26.67;15.37;;;;;;;3.28;64.64;99978.20;1623151;86;21417;-89
2021/03/05 07:55:27;;;;;;;22.70;12.20;;;;;;;3.14;64.78;99985.30;1622599;86;21199;-86
2021/03/05 07:58:49;;;;;;;20.13;11.50;;;;;;;3.38;64.49;99988.66;1624179;85;21171;-87
2021/03/05 08:06:03;;;;;;;;;;;;;;;;;;;;;
2021/03/05 08:09:15;;;;;;;20.83;11.67;;;;;;;3.35;63.33;99972.33;1620759;86;21278;-90
2021/03/05 08:15:53;;;;;;;22.98;11.90;;;;;;;3.27;63.19;99977.03;1672060;84;21224;-89
2021/03/05 08:19:14;;;;;;;;;;;;;;;3.26;62.86;99979.34;1692205;83;21149;-88
2021/03/05 08:22:26;;;;;;;;;;;;;;;3.25;62.67;99981.62;1675939;83;20122;-88
2021/03/05 08:25:54;;;;;;;17.43;10.30;;;;;;;3.18;63.14;99978.74;1672389;84;20217;-89
2021/03/05 08:29:50;;;;;;;17.87;10.53;;;;;;;3.24;63.07;99981.27;1642208;86;21213;-90
2021/03/05 08:33:14;;;;;;;12.97;8.97;;;;;;;3.43;62.63;99990.86;1636413;86;21362;-87
2021/03/05 08:36:48;;;;;;;15.07;9.30;;;;;;;3.58;62.20;99989.81;1610466;87;21861;-89
2021/03/05 08:40:25;;;;;;;14.37;8.63;;;;;;;3.70;61.08;99981.53;1632375;85;21214;-89
2021/03/05 08:43:53;;;;;;;15.63;9.53;;;;;;;3.74;60.71;99989.14;1622473;87;21173;-90
2021/03/05 08:47:22;;;;;;;18.50;10.63;;;;;;;3.75;60.41;99980.23;1533968;91;21254;-88
2021/03/05 08:54:02;;;;;;;18.47;9.67;;;;;;;2.67;60.06;99765.19;1518012;88;21231;-91
2021/03/05 08:57:06;;;;;;;19.37;10.60;;;;;;;4.11;59.47;99986.28;1567226;88;21151;-89
2021/03/05 09:00:30;;;;;;;24.20;12.53;;;;;;;4.24;59.48;99988.52;1521089;92;21221;-89
2021/03/05 09:03:37;;;;;;;17.70;9.13;;;;;;;4.39;58.92;99991.38;1473195;93;21199;-90
2021/03/05 09:07:01;;;;;;;16.20;9.13;;;;;;;4.44;58.31;99988.60;1513920;91;21298;-88
2021/03/05 09:21:11;;;;;;;13.20;8.83;;;;;;;4.36;57.43;99995.16;1806293;77;23677;-90
2021/03/05 09:24:13;;;;;;;13.10;8.90;;;;;;;4.32;57.68;99991.19;1707789;79;21117;-90
2021/03/05 09:27:51;;;;;;;17.10;7.87;;;;;;;4.43;57.65;100004.13;1703490;80;21159;-87
2021/03/05 09:53:38;;;;;;;10.27;6.67;;;;;;;4.48;54.72;100027.39;1626239;82;21289;-88
2021/03/05 09:56:48;;;;;;;11.27;7.90;;;;;;;4.51;54.43;100031.05;1669074;82;21159;-89
2021/03/05 10:00:00;;;;;;;;;;;;;;;4.53;55.26;100034.86;1698297;83;21447;-89
2021/03/05 10:03:11;;;;;;;14.87;7.87;;;;;;;4.54;55.21;100032.53;1652067;85;20236;-87
2021/03/05 10:06:20;;;;;;;8.40;6.83;;;;;;;4.48;55.50;100033.52;1804070;78;25848;-88
2021/03/05 10:09:22;;;;;;;11.20;5.93;;;;;;;4.47;55.23;100046.86;1747360;79;21148;-88
2021/03/05 10:12:37;;;;;;;11.10;5.67;;;;;;;4.51;55.05;100042.11;1725765;79;21076;-89
2021/03/05 10:19:38;;;;;;;14.73;8.27;;;;;;;4.48;55.26;100043.22;1614524;84;21213;-82
2021/03/05 10:22:54;;;;;;;11.20;7.53;;;;;;;4.51;55.49;100049.52;1636807;84;21124;-87
2021/03/05 10:32:48;;;;;;;12.33;8.63;;;;;;;4.02;56.81;100052.64;1629423;86;21161;-90
2021/03/05 10:36:29;;;;;;;14.67;7.93;;;;;;;4.01;56.85;100058.92;1563245;86;21209;-88
2021/03/05 10:39:40;;;;;;;12.27;7.97;;;;;;;4.08;57.04;100058.62;1608413;87;21197;-88
2021/03/05 10:56:29;;;;;;;11.00;6.63;;;;;;;4.43;55.39;100041.06;1630629;84;21095;-90
2021/03/05 10:59:59;;;;;;;11.63;6.63;;;;;;;4.51;55.02;100048.70;1573186;86;21339;-88
2021/03/05 11:03:02;;;;;;;10.33;6.77;;;;;;;4.48;54.00;100038.80;1581522;85;21361;-86
2021/03/05 11:06:34;;;;;;;9.70;6.33;;;;;;;4.49;54.44;100047.03;1573260;87;21224;-86
2021/03/05 11:10:09;;;;;;;12.33;7.07;;;;;;;4.51;54.31;100050.02;1582072;88;21248;-88
2021/03/05 11:13:24;;;;;;;10.30;6.80;;;;;;;4.48;53.90;100049.35;1495337;92;21203;-90
2021/03/05 11:16:49;;;;;;;8.23;5.20;;;;;;;4.39;54.05;100058.20;1474108;92;21459;-88
2021/03/05 11:20:07;;;;;;;3.83;3.33;;;;;;;4.38;53.35;100053.89;1474319;92;21228;-92
2021/03/05 11:26:45;;;;;;;10.10;3.83;;;;;;;4.29;52.27;100052.17;1464699;96;21274;-89
2021/03/05 11:43:19;;;;;;;8.43;4.72;;;;;;;4.55;51.38;100065.88;1542237;86;21461;-89
2021/03/05 11:47:00;;;;;;;7.20;5.20;;;;;;;4.52;52.09;100070.14;1480199;92;21203;-84
2021/03/05 11:50:23;;;;;;;7.40;4.07;;;;;;;4.46;52.13;100069.80;1537219;88;21186;-91
2021/03/05 11:53:50;;;;;;;8.77;2.73;;;;;;;4.45;51.90;100072.59;1534793;88;21252;-87
2021/03/05 11:57:19;;;;;;;4.40;1.97;;;;;;;4.28;51.12;100049.22;1579639;87;21226;-88
2021/03/05 12:01:00;;;;;;;4.63;2.00;;;;;;;4.30;51.18;100068.36;1588270;87;21129;-90
2021/03/05 12:04:34;;;;;;;3.27;2.20;;;;;;;4.36;51.19;100073.52;1593130;88;21225;-89
2021/03/05 12:08:08;;;;;;;7.37;4.03;;;;;;;4.41;51.41;100076.02;1596662;87;21151;-91
2021/03/05 12:11:20;;;;;;;;;;;;;;;4.36;52.32;100081.43;1612520;87;21214;-91
2021/03/05 12:22:14;;;;;;;6.47;5.27;;;;;;;4.18;54.62;100095.95;1599446;88;22397;-90
2021/03/05 12:25:36;;;;;;;6.40;5.07;;;;;;;4.16;55.73;100100.56;1580880;86;21440;-92
2021/03/05 12:28:59;;;;;;;;;;;;;;;4.09;56.07;100097.72;1622416;84;21173;-88
2021/03/05 12:35:38;;;;;;;8.23;6.10;;;;;;;4.12;56.27;100103.98;1633467;85;21102;-87
2021/03/05 12:39:01;;;;;;;8.10;6.33;;;;;;;4.22;56.23;100098.62;1604111;87;21166;-87
2021/03/05 12:42:32;;;;;;;11.13;6.50;;;;;;;4.32;56.43;100105.16;1616851;84;21414;-91
2021/03/05 12:59:58;;;;;;;8.50;3.90;;;;;;;4.16;54.42;100097.42;1619865;82;21700;-86
2021/03/05 13:06:34;;;;;;;6.63;3.20;;;;;;;4.08;54.50;100114.52;1580232;87;21106;-84
2021/03/05 13:09:43;;;;;;;7.27;3.67;;;;;;;4.12;53.98;100112.40;1545602;87;21193;-86
2021/03/05 13:17:09;;;;;;;6.83;4.10;;;;;;;4.19;53.63;100121.37;1585023;88;21300;-90
2021/03/05 13:20:34;;;;;;;7.37;3.40;;;;;;;4.16;53.66;100122.48;1587880;87;21165;-90
2021/03/05 13:24:08;;;;;;;5.90;2.30;;;;;;;4.18;53.55;100135.53;1589588;87;21166;-90
2021/03/05 13:27:30;;;;;;;3.17;1.60;;;;;;;4.07;52.46;100128.20;1600922;86;21175;-89
2021/03/05 13:30:57;;;;;;;3.27;2.10;;;;;;;3.96;52.83;100125.78;1578283;86;21253;-89
2021/03/05 13:34:36;;;;;;;2.53;2.17;;;;;;;3.98;52.42;100132.23;1603142;86;21122;-89
2021/03/05 13:41:22;;;;;;;3.23;2.13;;;;;;;3.92;51.47;100126.22;1613741;85;21154;-90
2021/03/05 13:44:36;;;;;;;4.13;2.63;;;;;;;3.84;51.84;100135.73;1615936;86;21191;-89
2021/03/05 13:47:48;;;;;;;2.73;2.10;;;;;;;3.83;52.17;100135.37;1608428;85;21216;-90
2021/03/05 13:51:12;;;;;;;3.80;2.37;;;;;;;3.89;52.19;100134.77;1647695;85;21229;-91
2021/03/05 13:57:57;;;;;;;3.60;1.77;;;;;;;3.95;51.06;100135.98;1648061;84;21113;-86
2021/03/05 14:07:54;;;;;;;6.40;2.53;;;;;;;3.93;50.15;100142.39;1664853;82;21455;-84
2021/03/05 14:10:52;;;;;;;6.13;3.33;;;;;;;3.89;50.31;100147.95;1691456;82;21212;-88
2021/03/05 14:14:08;;;;;;;3.00;2.57;;;;;;;3.84;50.41;100137.05;1693050;83;21234;-91
2021/03/05 14:17:20;;;;;;;5.60;2.50;;;;;;;3.85;51.12;100137.88;1688971;83;21303;-90
2021/03/05 14:23:55;;;;;;;3.33;2.60;;;;;;;3.89;50.38;100147.95;1641196;82;21428;-89
2021/03/05 14:27:18;;;;;;;8.17;3.43;;;;;;;3.93;50.13;100149.81;1623659;84;21212;-90
2021/03/05 14:30:33;;;;;;;3.43;2.33;;;;;;;3.89;49.71;100144.00;1615878;87;21246;-90
2021/03/05 14:33:45;;;;;;;7.37;3.77;;;;;;;3.85;50.18;100136.05;1629411;86;21282;-90
2021/03/05 14:37:12;;;;;;;7.40;3.47;;;;;;;3.83;50.54;100140.66;1631182;83;21134;-90
2021/03/05 14:40:25;;;;;;;6.73;4.80;;;;;;;3.77;50.99;100137.30;1639104;86;21245;-90
2021/03/05 14:43:33;;;;;;;4.70;3.90;;;;;;;3.76;51.01;100143.54;1649857;83;21245;-90
2021/03/05 14:47:04;;;;;;;6.83;3.70;;;;;;;3.70;51.42;100147.59;1646360;83;21149;-89
2021/03/05 14:50:32;;;;;;;5.90;4.00;;;;;;;3.65;51.80;100151.66;1635619;85;21189;-90
2021/03/05 14:53:35;;;;;;;8.27;5.00;;;;;;;3.63;52.19;100154.93;1631283;84;21147;-90
2021/03/05 14:56:48;;;;;;;9.90;4.77;;;;;;;3.63;52.41;100158.39;1609107;87;21240;-89
2021/03/05 15:00:09;;;;;;;7.77;4.60;;;;;;;3.60;52.60;100169.25;1601068;85;21131;-89
2021/03/05 15:03:36;;;;;;;6.77;4.27;;;;;;;3.56;52.90;100166.57;1622913;85;21148;-90
2021/03/05 15:07:00;;;;;;;10.13;4.70;;;;;;;3.54;52.99;100169.81;1619062;84;21172;-91
2021/03/05 15:10:37;;;;;;;9.00;4.70;;;;;;;3.50;53.16;100169.77;1619279;84;21166;-91
2021/03/05 15:17:17;;;;;;;6.37;3.63;;;;;;;3.41;53.21;100177.23;1634237;83;21126;-89
2021/03/05 15:23:30;;;;;;;8.60;5.63;;;;;;;3.29;53.65;100193.22;1643175;85;21074;-90
2021/03/05 15:26:47;;;;;;;10.00;5.93;;;;;;;3.29;53.94;100197.67;1659251;85;21212;-88
2021/03/05 15:29:54;;;;;;;8.90;5.27;;;;;;;3.29;54.38;100203.77;1644059;84;21204;-90
2021/03/05 15:33:09;;;;;;;10.67;5.37;;;;;;;3.30;54.89;100209.88;1652136;84;21280;-90
2021/03/05 15:36:24;;;;;;;10.57;5.67;;;;;;;3.26;55.38;100211.16;1656118;82;21238;-91
2021/03/05 15:39:48;;;;;;;8.97;5.43;;;;;;;3.25;55.22;100212.94;1661686;84;21166;-90
2021/03/05 15:43:16;;;;;;;12.33;5.13;;;;;;;3.22;55.54;100213.23;1643471;85;21162;-88
2021/03/05 15:46:20;;;;;;;8.87;5.83;;;;;;;3.24;56.00;100218.34;1608695;85;21183;-91
2021/03/05 15:52:33;;;;;;;6.37;3.13;;;;;;;3.18;56.48;100239.50;1653530;83;21146;-90
2021/03/05 15:55:36;;;;;;;7.13;4.27;;;;;;;3.12;56.51;100261.15;1675724;80;21150;-86
2021/03/05 15:59:02;;;;;;;;;;;;;;;3.03;56.44;100254.95;1674027;81;21143;-91
2021/03/05 16:02:45;;;;;;;5.50;3.53;;;;;;;2.96;56.66;100252.98;1693534;83;20141;-89
2021/03/05 16:06:36;;;;;;;5.57;3.27;;;;;;;2.89;56.86;100262.78;1681968;82;21283;-89
2021/03/05 16:10:17;;;;;;;6.07;2.50;;;;;;;2.88;56.84;100263.77;1703511;81;21251;-86
2021/03/05 16:13:24;;;;;;;5.47;2.80;;;;;;;1.85;56.66;100099.95;1639885;84;21118;-85
2021/03/05 16:35:04;;;;;;;8.87;5.33;;;;;;;2.78;60.90;100306.84;1643555;84;21316;-93
2021/03/05 16:38:29;;;;;;;6.08;4.30;;;;;;;2.76;61.13;100314.06;1637494;86;21295;-90
2021/03/05 16:48:38;;;;;;;8.50;5.07;;;;;;;2.70;61.64;100320.70;1587423;88;21179;-90
2021/03/05 16:51:53;;;;;;;10.00;5.10;;;;;;;2.65;62.36;100318.96;1587877;88;21242;-90
2021/03/05 16:54:51;;;;;;;6.90;4.90;;;;;;;2.63;63.08;100329.62;1580446;88;21257;-91
2021/03/05 16:57:43;;;;;;;8.35;4.72;;;;;;;2.50;63.39;100327.73;1580438;88;21241;-90
2021/03/05 17:00:32;;;;;;;5.37;4.58;;;;;;;2.47;63.43;100339.87;1593639;86;21482;-89
2021/03/05 17:03:47;;;;;;;9.60;4.83;;;;;;;2.43;63.26;100331.87;1593627;88;21209;-90
2021/03/05 17:07:02;;;;;;;6.87;3.77;;;;;;;2.47;62.85;100338.06;1592472;88;21383;-91
2021/03/05 17:13:38;;;;;;;;;;;;;;;2.54;62.09;100343.59;1633143;86;21229;-89
2021/03/05 17:16:27;;;;;;;8.50;4.95;;;;;;;2.56;61.96;100343.46;1605342;87;20228;-90
2021/03/05 17:19:42;;;;;;;7.77;4.10;;;;;;;2.56;61.82;100340.83;1624101;86;21299;-91
2021/03/05 17:23:36;;;;;;;9.93;3.40;;;;;;;2.58;61.63;100336.26;1562371;87;21172;-87
2021/03/05 17:26:49;;;;;;;7.17;4.10;;;;;;;2.63;60.98;100340.64;1557016;90;21224;-87
2021/03/05 17:29:57;;;;;;;8.93;5.27;;;;;;;2.67;60.25;100336.76;1558530;90;21256;-91
2021/03/05 17:33:05;;;;;;;7.93;5.50;;;;;;;2.67;59.95;100342.84;1544962;90;21259;-90
2021/03/05 17:36:16;;;;;;;8.47;4.97;;;;;;;2.68;59.90;100339.75;1565847;89;21191;-89
2021/03/05 17:39:27;;;;;;;8.63;4.50;;;;;;;2.68;59.71;100341.06;1586850;87;21169;-91
2021/03/05 17:42:20;;;;;;;9.00;4.13;;;;;;;2.75;59.63;100342.19;1574513;89;21211;-88